Time;durP1;ratioP1;P1;durP2;ratioP2;P2;SDS_P1;SDS_P2;PMS_P1;PMS_P2;Temp;Humidity;BMP_temperature;BMP_pressure;BME280_temperature;BME280_humidity;BME280_pressure;Samples;Min_cycle;Max_cycle;Signal;HPM_P1;HPM_P2
2022/11/30 00:00:15;;;;;;;33.50;17.13;;;5.00;99.90;;;;;;5114812;27;20035;-48
2022/11/30 00:02:41;;;;;;;30.33;17.50;;;5.30;99.90;;;;;;5133860;27;20096;-46
2022/11/30 00:05:07;;;;;;;35.97;16.23;;;4.90;99.90;;;;;;5115027;27;20043;-47
2022/11/30 00:07:33;;;;;;;26.15;15.80;;;5.40;99.90;;;;;;5115074;27;20043;-46
2022/11/30 00:09:59;;;;;;;53.50;19.85;;;5.00;99.90;;;;;;5132149;27;20039;-47
2022/11/30 00:12:25;;;;;;;48.00;17.00;;;5.70;99.90;;;;;;5133653;27;20392;-47
2022/11/30 00:14:50;;;;;;;58.60;16.25;;;5.40;99.90;;;;;;5133837;27;20118;-46
2022/11/30 00:17:16;;;;;;;42.78;15.60;;;5.30;99.90;;;;;;5133184;27;20031;-47
2022/11/30 00:19:43;;;;;;;67.45;14.75;;;4.80;99.90;;;;;;5133302;27;20470;-49
2022/11/30 00:22:08;;;;;;;52.17;15.23;;;5.00;99.90;;;;;;5133561;27;20110;-48
2022/11/30 00:24:34;;;;;;;63.72;14.32;;;4.60;99.90;;;;;;5133615;27;20114;-48
2022/11/30 00:27:00;;;;;;;56.25;14.85;;;4.80;99.90;;;;;;5133518;27;20039;-49
2022/11/30 00:29:25;;;;;;;77.30;13.48;;;5.00;99.90;;;;;;5133147;27;20047;-46
2022/11/30 00:31:51;;;;;;;43.55;12.48;;;5.00;99.90;;;;;;5131164;27;20043;-49
2022/11/30 00:34:17;;;;;;;56.55;12.73;;;4.50;99.90;;;;;;5133209;27;20046;-47
2022/11/30 00:36:42;;;;;;;50.97;11.93;;;4.90;99.90;;;;;;5133359;27;20035;-48
2022/11/30 00:39:08;;;;;;;54.53;11.73;;;4.80;99.90;;;;;;5133017;27;20118;-49
2022/11/30 00:41:34;;;;;;;81.18;12.77;;;4.40;99.90;;;;;;5131679;27;20031;-50
2022/11/30 00:43:59;;;;;;;60.78;13.00;;;4.30;99.90;;;;;;5133064;27;20035;-50
2022/11/30 00:46:25;;;;;;;85.05;13.52;;;4.90;99.90;;;;;;5132247;27;20562;-48
2022/11/30 00:48:51;;;;;;;78.60;12.73;;;4.60;99.90;;;;;;5114526;27;20031;-48
2022/11/30 00:51:17;;;;;;;73.53;13.32;;;4.80;99.90;;;;;;5132943;27;20027;-48
2022/11/30 00:53:43;;;;;;;122.05;14.73;;;4.80;99.90;;;;;;5114592;27;20031;-48
2022/11/30 00:56:09;;;;;;;104.43;14.88;;;4.40;99.90;;;;;;5132816;27;20580;-49
2022/11/30 00:58:35;;;;;;;130.30;15.57;;;4.70;99.90;;;;;;5132668;27;20039;-51
2022/11/30 01:01:01;;;;;;;97.32;14.60;;;4.20;99.90;;;;;;5132779;27;20035;-47
2022/11/30 01:03:27;;;;;;;74.63;14.60;;;4.70;99.90;;;;;;5132421;27;20031;-46
2022/11/30 01:05:53;;;;;;;71.90;13.60;;;4.60;99.90;;;;;;5114165;27;20039;-47
2022/11/30 01:08:18;;;;;;;69.55;13.95;;;4.60;99.90;;;;;;5132687;27;20046;-46
2022/11/30 01:10:46;;;;;;;110.97;15.77;;;4.80;99.90;;;;;;5132073;27;20050;-48
2022/11/30 01:13:12;;;;;;;99.25;14.95;;;4.20;99.90;;;;;;5132385;27;20081;-46
2022/11/30 01:15:41;;;;;;;72.38;14.13;;;4.60;99.90;;;;;;5131695;27;20035;-45
2022/11/30 01:18:07;;;;;;;52.60;14.18;;;4.20;99.90;;;;;;5114073;27;20457;-47
2022/11/30 01:20:32;;;;;;;59.28;14.15;;;4.30;99.90;;;;;;5132290;27;20110;-48
2022/11/30 01:22:58;;;;;;;45.20;14.27;;;4.70;99.90;;;;;;5131338;27;20565;-48
2022/11/30 01:25:24;;;;;;;46.38;14.18;;;4.60;99.90;;;;;;5131953;27;20039;-48
2022/11/30 01:27:50;;;;;;;40.72;14.50;;;4.30;99.90;;;;;;5131912;27;20043;-47
2022/11/30 01:30:16;;;;;;;29.95;13.75;;;4.30;99.90;;;;;;5132317;27;20066;-47
2022/11/30 01:32:42;;;;;;;64.30;14.60;;;4.30;99.90;;;;;;5131613;27;20570;-48
2022/11/30 01:35:08;;;;;;;48.75;15.70;;;4.30;99.90;;;;;;5131783;27;20039;-48
2022/11/30 01:37:34;;;;;;;45.50;14.88;;;4.60;99.90;;;;;;5131866;27;20035;-48
2022/11/30 01:40:01;;;;;;;28.23;13.85;;;4.50;99.90;;;;;;5132085;27;20539;-46
2022/11/30 01:42:26;;;;;;;24.33;14.23;;;4.60;99.90;;;;;;5131066;27;20136;-47
2022/11/30 01:44:56;;;;;;;27.67;15.40;;;4.00;99.90;;;;;;5131886;27;20043;-46
2022/11/30 01:47:47;;;;;;;27.02;15.18;;;3.90;99.90;;;;;;5131541;27;20486;-48
2022/11/30 01:50:29;;;;;;;24.35;14.57;;;4.20;99.90;;;;;;5131539;27;20494;-47
2022/11/30 01:52:56;;;;;;;26.08;15.55;;;4.70;99.90;;;;;;5131775;27;20042;-47
2022/11/30 01:55:28;;;;;;;26.20;15.25;;;3.90;99.90;;;;;;5130185;27;20117;-47
2022/11/30 01:58:02;;;;;;;26.88;15.75;;;4.60;99.90;;;;;;5131398;27;20508;-51
2022/11/30 02:00:28;;;;;;;;;;;4.10;99.90;;;;;;5132026;27;20031;-47
2022/11/30 02:03:27;;;;;;;27.77;15.32;;;4.80;99.90;;;;;;5131842;27;19960;-48
2022/11/30 02:05:54;;;;;;;28.85;16.02;;;4.10;99.90;;;;;;5131160;27;20031;-47
2022/11/30 02:08:20;;;;;;;29.90;16.60;;;4.50;99.90;;;;;;5129562;27;20042;-48
2022/11/30 02:10:51;;;;;;;33.55;18.40;;;4.40;99.90;;;;;;5129262;27;20513;-47
2022/11/30 02:13:37;;;;;;;32.83;19.15;;;4.90;99.90;;;;;;5131310;27;20035;-48
2022/11/30 02:16:18;;;;;;;36.67;19.67;;;5.10;99.90;;;;;;5130095;27;20208;-50
2022/11/30 02:19:16;;;;;;;39.72;20.33;;;4.50;99.90;;;;;;5112822;27;20043;-47
2022/11/30 02:21:45;;;;;;;33.65;19.17;;;4.60;99.90;;;;;;5130490;27;20478;-50
2022/11/30 02:24:16;;;;;;;40.80;19.98;;;4.50;99.90;;;;;;5130640;27;20065;-47
2022/11/30 02:27:06;;;;;;;34.92;19.67;;;5.00;99.90;;;;;;5131211;27;20035;-46
2022/11/30 02:29:50;;;;;;;38.00;21.02;;;4.60;99.90;;;;;;5130856;27;20039;-49
2022/11/30 02:32:28;;;;;;;;;;;4.40;99.90;;;;;;5130061;27;20478;-50
2022/11/30 02:34:57;;;;;;;34.58;18.02;;;4.40;99.90;;;;;;5130970;27;19919;-50
2022/11/30 02:37:24;;;;;;;36.30;18.85;;;4.30;99.90;;;;;;5130824;27;20035;-47
2022/11/30 02:39:49;;;;;;;34.92;18.65;;;4.70;99.90;;;;;;5112509;27;20043;-50
2022/11/30 02:42:15;;;;;;;31.65;18.00;;;5.00;99.90;;;;;;5130718;27;20057;-50
2022/11/30 02:44:43;;;;;;;32.25;18.25;;;4.90;99.90;;;;;;5112377;27;20092;-47
2022/11/30 02:47:21;;;;;;;35.83;19.15;;;4.90;99.90;;;;;;5112448;27;20117;-46
2022/11/30 02:50:19;;;;;;;33.78;19.30;;;4.50;99.90;;;;;;5130774;27;20043;-47
2022/11/30 02:52:45;;;;;;;32.72;19.05;;;4.90;99.90;;;;;;5106745;27;20477;-51
2022/11/30 02:55:15;;;;;;;37.35;19.30;;;5.10;99.90;;;;;;5130302;27;20043;-48
2022/11/30 02:57:41;;;;;;;34.58;19.05;;;4.90;99.90;;;;;;5130203;27;20031;-48
2022/11/30 03:00:09;;;;;;;36.20;19.73;;;4.50;99.90;;;;;;5130548;27;20096;-49
2022/11/30 03:02:35;;;;;;;35.15;19.40;;;4.30;99.90;;;;;;5130458;27;20027;-46
2022/11/30 03:05:01;;;;;;;33.15;19.80;;;4.20;99.90;;;;;;5130366;27;20430;-49
2022/11/30 03:07:27;;;;;;;30.60;17.70;;;4.80;99.90;;;;;;5112152;28;20065;-48
2022/11/30 03:09:53;;;;;;;30.50;19.17;;;4.10;99.90;;;;;;5130291;27;20035;-49
2022/11/30 03:12:18;;;;;;;31.98;17.50;;;4.60;99.90;;;;;;5130293;27;20492;-46
2022/11/30 03:14:44;;;;;;;30.95;18.25;;;4.50;99.90;;;;;;5130257;27;20084;-47
2022/11/30 03:17:10;;;;;;;29.15;16.65;;;4.00;99.90;;;;;;5130004;28;20547;-47
2022/11/30 03:19:35;;;;;;;27.70;16.40;;;4.50;99.90;;;;;;5129953;28;20038;-45
2022/11/30 03:22:01;;;;;;;27.73;17.17;;;4.80;99.90;;;;;;5130841;28;20039;-47
2022/11/30 03:24:27;;;;;;;26.58;16.95;;;4.60;99.90;;;;;;5130878;28;20084;-46
2022/11/30 03:26:52;;;;;;;30.58;17.10;;;4.80;99.90;;;;;;5130394;28;20114;-46
2022/11/30 03:29:18;;;;;;;31.63;16.55;;;3.80;99.90;;;;;;5129822;28;20379;-47
2022/11/30 03:31:44;;;;;;;27.98;16.33;;;4.60;99.90;;;;;;5129719;28;20054;-49
2022/11/30 03:34:09;;;;;;;28.98;17.02;;;3.70;99.90;;;;;;5130208;28;20611;-46
2022/11/30 03:36:35;;;;;;;26.85;15.60;;;4.50;99.90;;;;;;5130392;28;20106;-47
2022/11/30 03:39:01;;;;;;;25.75;15.35;;;3.80;99.90;;;;;;5130886;28;20031;-47
2022/11/30 03:41:27;;;;;;;30.20;15.27;;;4.20;99.90;;;;;;5130270;28;20046;-47
2022/11/30 03:43:53;;;;;;;28.10;16.27;;;4.40;99.90;;;;;;5129626;28;20400;-47
2022/11/30 03:46:19;;;;;;;25.95;15.38;;;3.80;99.90;;;;;;5129822;28;20035;-49
2022/11/30 03:48:44;;;;;;;25.45;14.77;;;3.60;99.90;;;;;;5129886;28;20057;-47
2022/11/30 03:51:12;;;;;;;26.48;15.40;;;4.20;99.90;;;;;;5130094;28;20390;-48
2022/11/30 03:53:38;;;;;;;29.83;16.25;;;3.80;99.90;;;;;;5129887;28;20038;-48
2022/11/30 03:56:06;;;;;;;27.92;15.20;;;3.40;99.90;;;;;;5129834;28;20465;-46
2022/11/30 03:58:33;;;;;;;28.20;14.93;;;4.10;99.90;;;;;;5130095;28;20039;-47
2022/11/30 04:01:04;;;;;;;27.23;15.18;;;3.80;99.90;;;;;;5130105;28;20035;-49
2022/11/30 04:03:30;;;;;;;28.88;15.55;;;4.00;99.90;;;;;;5130173;28;20035;-48
2022/11/30 04:05:57;;;;;;;27.55;14.98;;;3.30;99.90;;;;;;5131953;27;20087;-47
2022/11/30 04:08:23;;;;;;;25.17;14.32;;;4.00;99.90;;;;;;5133487;27;20053;-47
2022/11/30 04:10:53;;;;;;;24.08;13.57;;;3.70;99.90;;;;;;5115579;27;22043;-47
2022/11/30 04:13:20;;;;;;;24.35;13.05;;;3.20;99.90;;;;;;5133909;27;20482;-47
2022/11/30 04:15:47;;;;;;;37.85;12.65;;;3.20;99.90;;;;;;5133321;27;20047;-46
2022/11/30 04:18:13;;;;;;;103.00;14.48;;;3.30;99.90;;;;;;5133337;27;20035;-48
2022/11/30 04:20:40;;;;;;;91.05;13.68;;;3.80;99.90;;;;;;5114781;27;20045;-49
2022/11/30 04:23:07;;;;;;;93.35;12.95;;;3.70;99.90;;;;;;5133539;27;20050;-48
2022/11/30 04:25:33;;;;;;;63.33;11.10;;;3.30;99.90;;;;;;5133291;27;20031;-47
2022/11/30 04:27:59;;;;;;;66.55;10.32;;;3.30;99.90;;;;;;5133006;27;20039;-47
2022/11/30 04:30:24;;;;;;;49.90;10.23;;;3.00;99.90;;;;;;5132963;27;20035;-47
2022/11/30 04:32:50;;;;;;;74.07;12.23;;;3.10;99.90;;;;;;5132872;27;20047;-46
2022/11/30 04:35:16;;;;;;;78.30;12.45;;;3.60;99.90;;;;;;5133624;27;20514;-49
2022/11/30 04:37:42;;;;;;;44.60;11.63;;;3.00;99.90;;;;;;5132350;27;20065;-49
2022/11/30 04:40:08;;;;;;;44.88;11.73;;;2.90;99.90;;;;;;5114824;27;20043;-50
2022/11/30 04:42:34;;;;;;;51.63;11.43;;;3.40;99.90;;;;;;5133076;27;20470;-48
2022/11/30 04:45:00;;;;;;;20.30;10.18;;;3.20;99.90;;;;;;5132797;27;20039;-49
2022/11/30 04:47:25;;;;;;;27.00;11.90;;;3.40;99.90;;;;;;5132762;27;20062;-48
2022/11/30 04:49:51;;;;;;;25.00;11.02;;;3.50;99.90;;;;;;5114360;27;20474;-46
2022/11/30 04:52:17;;;;;;;35.80;10.65;;;2.70;99.90;;;;;;5114687;27;20436;-51
2022/11/30 04:54:42;;;;;;;27.33;10.55;;;2.70;99.90;;;;;;5132890;27;20074;-47
2022/11/30 04:57:08;;;;;;;42.38;11.93;;;3.90;99.90;;;;;;5132890;27;20031;-52
2022/11/30 04:59:33;;;;;;;50.55;11.85;;;2.80;99.90;;;;;;5114073;27;20406;-49
2022/11/30 05:01:59;;;;;;;22.98;11.18;;;3.40;99.90;;;;;;5133554;27;20394;-47
2022/11/30 05:04:25;;;;;;;49.03;12.30;;;2.90;99.90;;;;;;5097715;27;20526;-48
2022/11/30 05:06:50;;;;;;;20.00;10.75;;;3.30;99.90;;;;;;5132318;27;20035;-48
2022/11/30 05:09:16;;;;;;;22.98;11.40;;;2.80;99.90;;;;;;5114229;27;20380;-48
2022/11/30 05:11:42;;;;;;;30.50;13.88;;;3.60;99.90;;;;;;5132326;27;20031;-50
2022/11/30 05:14:08;;;;;;;31.25;14.27;;;3.60;99.90;;;;;;5132178;27;20031;-50
2022/11/30 05:16:33;;;;;;;30.23;15.77;;;3.80;99.90;;;;;;5130837;27;20039;-47
2022/11/30 05:18:59;;;;;;;30.25;15.27;;;3.10;99.90;;;;;;5131692;27;20070;-48
2022/11/30 05:21:25;;;;;;;60.65;15.63;;;3.40;99.90;;;;;;5132068;27;20042;-46
2022/11/30 05:23:51;;;;;;;34.42;15.48;;;3.20;99.90;;;;;;5132061;27;20031;-46
2022/11/30 05:26:17;;;;;;;41.60;15.85;;;3.60;99.90;;;;;;5132431;27;20448;-47
2022/11/30 05:28:42;;;;;;;40.15;15.57;;;3.60;99.90;;;;;;5132796;27;20031;-45
2022/11/30 05:31:08;;;;;;;73.47;16.65;;;3.30;99.90;;;;;;5132518;27;20086;-47
2022/11/30 05:33:34;;;;;;;45.25;15.85;;;3.50;99.90;;;;;;5132208;27;20525;-47
2022/11/30 05:35:59;;;;;;;51.47;15.15;;;3.90;99.90;;;;;;5131840;27;20118;-45
2022/11/30 05:38:25;;;;;;;30.30;14.52;;;4.20;99.90;;;;;;5132032;27;20082;-47
2022/11/30 05:40:51;;;;;;;36.78;15.65;;;3.30;99.90;;;;;;5132006;27;20035;-47
2022/11/30 05:43:17;;;;;;;36.65;16.05;;;3.40;99.90;;;;;;5131692;27;20041;-49
2022/11/30 05:45:43;;;;;;;34.08;15.95;;;3.40;99.90;;;;;;5131862;27;20038;-47
2022/11/30 05:48:09;;;;;;;35.67;17.52;;;4.10;99.90;;;;;;5131574;27;20035;-46
2022/11/30 05:50:34;;;;;;;36.10;17.48;;;3.90;99.90;;;;;;5131515;27;20042;-49
2022/11/30 05:53:00;;;;;;;38.85;18.38;;;4.20;99.90;;;;;;5112966;27;20062;-48
2022/11/30 05:55:28;;;;;;;38.63;18.80;;;3.50;99.90;;;;;;5113538;27;20039;-47
2022/11/30 05:57:53;;;;;;;40.78;19.65;;;4.20;99.90;;;;;;5131414;27;20042;-45
2022/11/30 06:00:20;;;;;;;40.22;19.90;;;4.10;99.90;;;;;;5131935;27;20039;-50
2022/11/30 06:02:46;;;;;;;43.35;19.75;;;4.30;99.90;;;;;;5113094;27;20129;-46
2022/11/30 06:05:14;;;;;;;45.22;21.00;;;4.10;99.90;;;;;;5131522;27;20122;-47
2022/11/30 06:07:40;;;;;;;49.63;21.95;;;4.50;99.90;;;;;;5131519;27;20466;-47
2022/11/30 06:10:06;;;;;;;47.90;21.90;;;4.30;99.90;;;;;;5096198;27;20445;-48
2022/11/30 06:12:32;;;;;;;44.72;21.50;;;4.00;99.90;;;;;;5131101;27;20046;-46
2022/11/30 06:14:58;;;;;;;51.58;22.85;;;4.30;99.90;;;;;;5131138;27;20498;-47
2022/11/30 06:17:23;;;;;;;51.65;23.60;;;4.70;99.90;;;;;;5130772;27;20123;-50
2022/11/30 06:19:49;;;;;;;53.63;24.02;;;4.70;99.90;;;;;;5131147;27;20031;-49
2022/11/30 06:22:15;;;;;;;53.88;25.45;;;4.70;99.90;;;;;;5131203;27;20414;-47
2022/11/30 06:24:40;;;;;;;57.63;24.23;;;4.00;99.90;;;;;;5130622;27;20375;-46
2022/11/30 06:27:06;;;;;;;56.60;25.63;;;4.30;99.90;;;;;;5131076;27;20092;-46
2022/11/30 06:29:32;;;;;;;58.90;26.48;;;4.90;99.90;;;;;;5112291;27;20031;-47
2022/11/30 06:31:57;;;;;;;60.35;27.38;;;4.80;99.90;;;;;;5130379;27;20444;-46
2022/11/30 06:34:23;;;;;;;65.93;28.75;;;4.20;99.90;;;;;;5130947;27;20635;-47
2022/11/30 06:36:49;;;;;;;66.97;28.85;;;4.80;99.90;;;;;;5112142;27;20062;-48
2022/11/30 06:39:14;;;;;;;60.03;25.85;;;4.20;99.90;;;;;;5131125;27;20035;-47
2022/11/30 06:41:40;;;;;;;57.72;27.77;;;5.10;99.90;;;;;;5131377;27;20058;-47
2022/11/30 06:44:09;;;;;;;58.90;24.58;;;4.50;99.90;;;;;;5131425;27;20094;-50
2022/11/30 06:46:35;;;;;;;65.03;26.63;;;4.20;99.90;;;;;;5130775;27;20035;-47
2022/11/30 06:49:01;;;;;;;58.95;26.95;;;4.40;99.90;;;;;;5130004;27;20095;-48
2022/11/30 06:51:27;;;;;;;57.83;26.35;;;5.00;99.90;;;;;;5130649;27;20035;-50
2022/11/30 06:53:53;;;;;;;65.22;27.17;;;4.80;99.90;;;;;;5130327;27;20118;-47
2022/11/30 06:56:19;;;;;;;64.20;27.45;;;4.40;99.90;;;;;;5130447;27;20027;-48
2022/11/30 06:58:44;;;;;;;64.90;27.55;;;4.30;99.90;;;;;;5096174;27;20084;-49
2022/11/30 07:01:12;;;;;;;60.55;26.63;;;5.20;99.90;;;;;;5130457;27;20054;-49
2022/11/30 07:03:39;;;;;;;62.17;27.88;;;4.80;99.90;;;;;;5129170;27;20043;-49
2022/11/30 07:06:10;;;;;;;61.88;28.80;;;5.00;99.90;;;;;;5130395;27;20042;-48
2022/11/30 07:08:36;;;;;;;68.90;27.88;;;4.40;99.90;;;;;;5130472;27;20122;-47
2022/11/30 07:11:02;;;;;;;61.72;28.75;;;5.20;99.90;;;;;;5130380;27;20035;-47
2022/11/30 07:13:29;;;;;;;63.60;29.92;;;4.60;99.90;;;;;;5130251;27;20394;-48
2022/11/30 07:15:55;;;;;;;69.82;28.67;;;4.30;99.90;;;;;;5130568;27;20392;-46
2022/11/30 07:18:21;;;;;;;66.43;29.50;;;4.40;99.90;;;;;;5130334;28;20031;-48
2022/11/30 07:20:47;;;;;;;64.75;30.30;;;4.70;99.90;;;;;;5129996;28;20059;-48
2022/11/30 07:26:06;;;;;;;67.32;30.48;;;4.80;99.90;;;;;;5128037;28;20429;-47
2022/11/30 07:28:35;;;;;;;66.82;30.52;;;4.90;99.90;;;;;;5127997;28;20035;-49
2022/11/30 07:31:02;;;;;;;71.80;30.35;;;5.20;99.90;;;;;;5127695;28;20035;-52
2022/11/30 07:33:29;;;;;;;67.13;30.73;;;5.00;99.90;;;;;;5110146;28;20485;-49
2022/11/30 07:35:55;;;;;;;69.68;29.75;;;5.30;99.90;;;;;;5119496;28;20386;-48
2022/11/30 07:38:21;;;;;;;69.93;31.48;;;4.60;99.90;;;;;;5101209;28;20035;-46
2022/11/30 07:40:46;;;;;;;76.57;32.05;;;4.80;99.90;;;;;;5121832;27;20183;-46
2022/11/30 07:43:12;;;;;;;67.90;30.45;;;5.30;99.90;;;;;;5122753;27;20054;-47
2022/11/30 07:45:38;;;;;;;71.38;31.13;;;5.10;99.90;;;;;;5124220;27;20050;-46
2022/11/30 07:48:03;;;;;;;73.35;30.58;;;5.10;99.90;;;;;;5123446;27;20031;-48
2022/11/30 07:50:30;;;;;;;73.10;32.55;;;4.60;99.90;;;;;;5125621;27;20027;-48
2022/11/30 07:52:56;;;;;;;68.07;31.20;;;5.50;99.90;;;;;;5125659;27;20031;-46
2022/11/30 07:55:22;;;;;;;72.32;32.53;;;5.50;99.90;;;;;;5105382;27;20042;-46
2022/11/30 07:57:48;;;;;;;69.30;31.85;;;5.10;99.90;;;;;;5123194;27;20035;-51
2022/11/30 08:00:14;;;;;;;67.85;31.70;;;5.30;99.90;;;;;;5105094;27;20088;-47
2022/11/30 08:02:40;;;;;;;73.85;33.65;;;4.70;99.90;;;;;;5105054;27;20393;-47
2022/11/30 08:05:06;;;;;;;71.90;32.97;;;5.60;99.90;;;;;;5124019;27;20039;-45
2022/11/30 08:07:32;;;;;;;72.18;33.60;;;5.60;99.90;;;;;;5124629;27;20061;-49
2022/11/30 08:09:58;;;;;;;75.75;34.85;;;5.50;99.90;;;;;;5124928;27;20035;-48
2022/11/30 08:12:23;;;;;;;75.68;33.22;;;5.60;99.90;;;;;;5123427;27;20038;-48
2022/11/30 08:14:49;;;;;;;79.32;36.13;;;5.50;99.90;;;;;;5123841;27;20038;-48
2022/11/30 08:17:14;;;;;;;82.30;36.20;;;5.00;99.90;;;;;;5103411;27;20035;-49
2022/11/30 08:19:40;;;;;;;79.72;36.05;;;4.90;99.90;;;;;;5123609;27;20039;-48
2022/11/30 08:22:06;;;;;;;77.20;34.90;;;5.20;99.90;;;;;;5122903;27;20126;-46
2022/11/30 08:24:31;;;;;;;79.22;37.00;;;5.00;99.90;;;;;;5104448;27;20027;-47
2022/11/30 08:26:57;;;;;;;76.57;35.03;;;6.10;99.90;;;;;;5106151;27;20023;-48
2022/11/30 08:29:23;;;;;;;77.18;34.10;;;5.20;99.90;;;;;;5114390;27;20039;-48
2022/11/30 08:31:48;;;;;;;78.75;35.28;;;5.10;99.90;;;;;;5108300;27;20098;-49
2022/11/30 08:34:14;;;;;;;81.38;34.05;;;5.80;99.90;;;;;;5117479;27;20039;-49
2022/11/30 08:36:41;;;;;;;77.90;35.30;;;5.20;99.90;;;;;;5104682;27;20035;-48
2022/11/30 08:39:08;;;;;;;84.97;37.00;;;5.60;99.90;;;;;;5123245;27;20031;-49
2022/11/30 08:41:35;;;;;;;75.57;34.50;;;5.20;99.90;;;;;;5125057;27;20378;-48
2022/11/30 08:44:01;;;;;;;77.78;34.72;;;5.50;99.90;;;;;;5124157;27;20041;-45
2022/11/30 08:46:26;;;;;;;74.47;35.25;;;5.20;99.90;;;;;;5120079;27;20043;-49
2022/11/30 08:48:52;;;;;;;73.88;34.60;;;5.20;99.90;;;;;;5118668;27;20050;-47
2022/11/30 08:51:19;;;;;;;71.43;33.17;;;5.90;99.90;;;;;;5118647;27;20114;-48
2022/11/30 08:53:46;;;;;;;69.82;33.67;;;6.00;99.90;;;;;;5119118;27;20019;-48
2022/11/30 08:56:18;;;;;;;75.10;33.88;;;6.10;99.90;;;;;;5122514;27;20080;-47
2022/11/30 08:58:44;;;;;;;72.45;33.03;;;5.90;99.90;;;;;;5122196;27;20462;-47
2022/11/30 09:01:23;;;;;;;70.18;35.47;;;5.70;99.90;;;;;;5084411;27;20043;-47
2022/11/30 09:03:52;;;;;;;72.78;33.63;;;5.40;99.90;;;;;;5117345;27;20032;-48
2022/11/30 09:06:21;;;;;;;73.55;35.85;;;5.30;99.90;;;;;;5100548;27;20137;-48
2022/11/30 09:08:49;;;;;;;74.22;35.38;;;5.90;99.90;;;;;;5119229;27;20095;-50
2022/11/30 09:11:18;;;;;;;77.78;34.85;;;5.40;99.90;;;;;;5122422;27;20084;-45
2022/11/30 09:13:45;;;;;;;79.45;35.40;;;5.40;99.90;;;;;;5120742;27;20023;-47
2022/11/30 09:16:12;;;;;;;77.30;34.45;;;5.70;99.90;;;;;;5123882;27;20470;-46
2022/11/30 09:18:38;;;;;;;76.55;35.70;;;5.90;99.90;;;;;;5124491;27;20123;-48
2022/11/30 09:21:07;;;;;;;78.93;35.65;;;5.40;99.90;;;;;;5121937;27;20070;-46
2022/11/30 09:23:33;;;;;;;86.50;37.28;;;6.10;99.90;;;;;;5100691;27;20486;-47
2022/11/30 09:26:01;;;;;;;81.47;35.08;;;5.50;99.90;;;;;;5120523;27;20070;-47
2022/11/30 09:28:29;;;;;;;82.32;35.30;;;5.40;99.90;;;;;;5120061;27;20081;-46
2022/11/30 09:31:05;;;;;;;78.03;34.10;;;5.40;99.90;;;;;;5099348;27;20031;-46
2022/11/30 09:33:32;;;;;;;73.55;33.40;;;5.50;99.90;;;;;;5120097;27;20043;-44
2022/11/30 09:36:04;;;;;;;82.13;34.10;;;5.50;99.90;;;;;;5121009;27;20027;-46
2022/11/30 09:38:30;;;;;;;70.88;31.40;;;5.30;99.90;;;;;;5120594;27;20027;-47
2022/11/30 09:40:57;;;;;;;73.55;32.15;;;5.30;99.90;;;;;;5102341;27;20080;-46
2022/11/30 09:43:59;;;;;;;76.25;32.25;;;5.60;99.90;;;;;;5121071;27;20031;-48
2022/11/30 09:46:34;;;;;;;74.57;31.55;;;5.50;99.90;;;;;;5027527;28;20041;-46
2022/11/30 09:49:18;;;;;;;70.97;31.35;;;6.00;99.90;;;;;;5107817;27;20313;-48
2022/11/30 09:51:46;;;;;;;75.50;32.28;;;5.50;99.90;;;;;;5120737;27;20027;-46
2022/11/30 09:54:18;;;;;;;70.20;32.03;;;5.50;99.90;;;;;;5118844;27;21095;-48
2022/11/30 09:56:45;;;;;;;70.40;31.73;;;6.00;99.90;;;;;;5115834;27;20035;-47
2022/11/30 09:59:25;;;;;;;73.32;31.42;;;5.60;99.90;;;;;;5100003;27;20058;-46
2022/11/30 10:01:51;;;;;;;68.80;31.77;;;6.00;99.90;;;;;;5119265;27;20059;-50
2022/11/30 10:04:20;;;;;;;73.82;34.25;;;6.50;99.90;;;;;;5100685;27;20474;-47
2022/11/30 10:07:23;;;;;;;71.95;35.08;;;6.50;99.90;;;;;;5116500;27;20039;-46
2022/11/30 10:09:54;;;;;;;67.90;31.30;;;6.50;99.90;;;;;;5098797;27;20054;-47
2022/11/30 10:12:40;;;;;;;75.20;34.83;;;6.10;99.90;;;;;;5120665;27;20522;-48
2022/11/30 10:15:34;;;;;;;64.90;30.27;;;5.80;99.90;;;;;;5120587;27;20035;-47
2022/11/30 10:18:22;;;;;;;65.00;29.73;;;6.60;99.90;;;;;;5100527;27;20100;-49
2022/11/30 10:21:02;;;;;;;59.45;29.77;;;6.60;99.90;;;;;;5118084;27;20049;-48
2022/11/30 10:24:06;;;;;;;63.45;31.75;;;5.80;99.90;;;;;;5119346;27;20083;-50
2022/11/30 10:26:37;;;;;;;62.85;29.77;;;6.00;99.90;;;;;;5071662;27;20047;-46
2022/11/30 10:29:34;;;;;;;63.42;32.60;;;5.90;99.90;;;;;;5119711;27;20043;-48
2022/11/30 10:32:21;;;;;;;65.05;30.50;;;6.30;99.90;;;;;;5102916;27;20046;-49
2022/11/30 10:34:59;;;;;;;62.67;29.83;;;5.90;99.90;;;;;;5117681;27;20067;-49
2022/11/30 10:37:35;;;;;;;57.97;29.90;;;6.00;99.90;;;;;;5117783;27;20043;-47
2022/11/30 10:40:04;;;;;;;60.80;30.10;;;6.60;99.90;;;;;;5120657;27;20050;-46
2022/11/30 10:43:02;;;;;;;60.53;30.33;;;6.70;99.90;;;;;;5128939;27;20039;-46
2022/11/30 10:45:30;;;;;;;60.40;29.73;;;6.10;99.90;;;;;;5127731;27;20043;-46
2022/11/30 10:48:05;;;;;;;57.97;29.77;;;6.50;99.90;;;;;;5129579;27;20110;-48
2022/11/30 10:50:31;;;;;;;57.70;29.70;;;6.70;99.90;;;;;;5109372;27;20051;-48
2022/11/30 10:52:59;;;;;;;58.60;29.13;;;6.70;99.90;;;;;;5129218;27;20054;-46
2022/11/30 10:55:38;;;;;;;56.10;28.63;;;6.50;99.90;;;;;;5129528;27;20511;-46
2022/11/30 10:58:17;;;;;;;54.63;28.48;;;6.50;99.90;;;;;;5130123;27;20031;-46
2022/11/30 11:01:01;;;;;;;59.00;29.30;;;6.60;99.90;;;;;;5130743;27;20095;-46
2022/11/30 11:03:27;;;;;;;63.97;31.50;;;6.30;99.90;;;;;;5130399;27;20034;-49
2022/11/30 11:06:25;;;;;;;56.00;30.00;;;6.10;99.90;;;;;;5130613;27;20031;-46
2022/11/30 11:08:50;;;;;;;47.55;26.90;;;6.70;99.90;;;;;;5128774;27;20743;-51
2022/11/30 11:11:28;;;;;;;49.05;26.83;;;6.30;99.90;;;;;;5130775;27;20035;-46
2022/11/30 11:14:15;;;;;;;47.28;26.75;;;6.50;99.90;;;;;;5130614;27;20042;-49
2022/11/30 11:16:59;;;;;;;48.08;26.52;;;6.60;99.90;;;;;;5129692;27;20382;-45
2022/11/30 11:19:37;;;;;;;45.33;26.23;;;6.20;99.90;;;;;;5130244;27;20681;-48
2022/11/30 11:22:26;;;;;;;51.08;27.05;;;6.70;99.90;;;;;;5130498;28;20039;-48
2022/11/30 11:25:22;;;;;;;46.67;26.40;;;6.30;99.90;;;;;;5130082;28;20458;-47
2022/11/30 11:27:52;;;;;;;53.13;27.23;;;6.30;99.90;;;;;;5129912;28;20045;-47
2022/11/30 11:30:29;;;;;;;48.95;27.02;;;6.30;99.90;;;;;;5111226;28;20035;-46
2022/11/30 11:33:02;;;;;;;50.25;27.90;;;6.90;99.90;;;;;;5111198;28;20082;-47
2022/11/30 11:35:36;;;;;;;50.17;27.63;;;6.90;99.90;;;;;;5127619;28;20035;-48
2022/11/30 11:38:02;;;;;;;43.42;26.10;;;6.70;99.90;;;;;;5120622;28;20308;-48
2022/11/30 11:40:28;;;;;;;50.38;26.20;;;6.80;99.90;;;;;;5119609;28;20061;-47
2022/11/30 11:42:57;;;;;;;46.58;27.10;;;7.10;99.90;;;;;;5122514;28;20035;-47
2022/11/30 11:45:29;;;;;;;45.90;24.58;;;6.30;99.90;;;;;;5119014;28;20032;-47
2022/11/30 11:48:01;;;;;;;49.80;27.00;;;6.40;99.90;;;;;;5122474;28;20118;-49
2022/11/30 11:50:35;;;;;;;50.60;27.40;;;6.30;99.90;;;;;;5121579;28;20494;-45
2022/11/30 11:53:22;;;;;;;46.63;26.42;;;6.60;99.90;;;;;;5118966;28;20035;-50
2022/11/30 11:55:54;;;;;;;46.22;26.33;;;6.90;99.90;;;;;;5118194;28;20469;-46
2022/11/30 11:58:33;;;;;;;45.42;26.08;;;6.90;99.90;;;;;;5118279;28;20039;-48
2022/11/30 12:01:01;;;;;;;46.53;25.85;;;6.40;99.90;;;;;;5123276;28;20043;-49
2022/11/30 12:03:43;;;;;;;44.47;25.98;;;6.90;99.90;;;;;;5122042;28;20031;-46
2022/11/30 12:06:14;;;;;;;49.28;26.02;;;6.90;99.90;;;;;;5105558;28;20066;-50
2022/11/30 12:09:17;;;;;;;42.03;24.45;;;6.90;99.90;;;;;;5115393;28;20512;-50
2022/11/30 12:11:46;;;;;;;40.22;23.60;;;6.50;99.90;;;;;;5062038;28;20051;-48
2022/11/30 12:14:14;;;;;;;40.28;24.85;;;6.70;99.90;;;;;;5103496;28;20039;-47
2022/11/30 12:16:49;;;;;;;42.60;24.35;;;6.40;99.90;;;;;;5109825;28;20038;-48
2022/11/30 12:19:18;;;;;;;42.25;25.55;;;6.50;99.90;;;;;;5121797;28;20032;-47
2022/11/30 12:22:02;;;;;;;40.33;24.45;;;6.80;99.90;;;;;;5119336;28;20478;-46
2022/11/30 12:24:39;;;;;;;42.75;25.02;;;6.90;99.90;;;;;;5125100;28;20043;-50
2022/11/30 12:27:41;;;;;;;42.10;24.35;;;6.90;99.90;;;;;;5121593;27;20287;-46
2022/11/30 12:30:34;;;;;;;41.38;24.63;;;7.00;99.90;;;;;;5116309;27;21491;-49
2022/11/30 12:33:16;;;;;;;41.47;24.73;;;6.80;99.90;;;;;;5120583;27;20050;-48
2022/11/30 12:36:08;;;;;;;38.40;24.08;;;6.60;99.90;;;;;;5121534;27;20035;-45
2022/11/30 12:38:42;;;;;;;41.45;25.05;;;6.50;99.90;;;;;;5127191;27;20035;-49
2022/11/30 12:41:19;;;;;;;;;;;6.80;99.90;;;;;;5124774;27;20110;-50
2022/11/30 12:43:59;;;;;;;40.10;24.75;;;6.90;99.90;;;;;;5126062;27;19923;-49
2022/11/30 12:46:41;;;;;;;43.92;24.83;;;6.60;99.90;;;;;;5123711;27;20066;-46
2022/11/30 12:49:34;;;;;;;40.85;23.27;;;6.90;99.90;;;;;;5123032;27;20043;-48
2022/11/30 12:52:19;;;;;;;44.00;25.70;;;6.60;99.90;;;;;;5126442;27;20075;-46
2022/11/30 12:54:55;;;;;;;44.80;24.80;;;6.60;99.90;;;;;;5123002;27;20302;-46